sensor_id;sensor_type;location;lat;lon;timestamp;temperature;humidity
13673;DHT22;6909;52.202;9.876;2023-05-10T00:00:25;12.20;99.90
13673;DHT22;6909;52.202;9.876;2023-05-10T00:02:51;12.20;99.90
13673;DHT22;6909;52.202;9.876;2023-05-10T00:05:18;12.10;99.90
13673;DHT22;6909;52.202;9.876;2023-05-10T00:07:45;12.10;99.90
13673;DHT22;6909;52.202;9.876;2023-05-10T00:10:12;11.90;99.90
13673;DHT22;6909;52.202;9.876;2023-05-10T00:12:40;11.90;99.90
13673;DHT22;6909;52.202;9.876;2023-05-10T00:15:08;11.90;99.90
13673;DHT22;6909;52.202;9.876;2023-05-10T00:17:35;12.10;99.90
13673;DHT22;6909;52.202;9.876;2023-05-10T00:20:01;12.30;99.90
13673;DHT22;6909;52.202;9.876;2023-05-10T00:22:30;12.40;99.90
13673;DHT22;6909;52.202;9.876;2023-05-10T00:24:57;12.50;99.90
13673;DHT22;6909;52.202;9.876;2023-05-10T00:27:23;12.40;99.90
13673;DHT22;6909;52.202;9.876;2023-05-10T00:29:51;12.40;99.90
13673;DHT22;6909;52.202;9.876;2023-05-10T00:32:18;12.30;99.90
13673;DHT22;6909;52.202;9.876;2023-05-10T00:34:45;12.30;99.90
13673;DHT22;6909;52.202;9.876;2023-05-10T00:37:12;12.30;99.90
13673;DHT22;6909;52.202;9.876;2023-05-10T00:39:39;12.20;99.90
13673;DHT22;6909;52.202;9.876;2023-05-10T00:42:06;12.20;99.90
13673;DHT22;6909;52.202;9.876;2023-05-10T00:44:32;12.20;99.90
13673;DHT22;6909;52.202;9.876;2023-05-10T00:47:00;12.20;99.90
13673;DHT22;6909;52.202;9.876;2023-05-10T00:49:27;12.10;99.90
13673;DHT22;6909;52.202;9.876;2023-05-10T00:51:54;12.10;99.90
13673;DHT22;6909;52.202;9.876;2023-05-10T00:54:21;12.00;99.90
13673;DHT22;6909;52.202;9.876;2023-05-10T00:56:48;11.90;99.90
13673;DHT22;6909;52.202;9.876;2023-05-10T00:59:15;11.90;99.90
13673;DHT22;6909;52.202;9.876;2023-05-10T01:01:43;11.90;99.90
13673;DHT22;6909;52.202;9.876;2023-05-10T01:04:12;11.90;99.90
13673;DHT22;6909;52.202;9.876;2023-05-10T01:06:39;11.90;99.90
13673;DHT22;6909;52.202;9.876;2023-05-10T01:09:06;11.80;99.90
13673;DHT22;6909;52.202;9.876;2023-05-10T01:11:33;11.70;99.90
13673;DHT22;6909;52.202;9.876;2023-05-10T01:14:00;11.60;99.90
13673;DHT22;6909;52.202;9.876;2023-05-10T01:16:29;11.50;99.90
13673;DHT22;6909;52.202;9.876;2023-05-10T01:18:58;11.50;99.90
13673;DHT22;6909;52.202;9.876;2023-05-10T01:21:38;11.50;99.90
13673;DHT22;6909;52.202;9.876;2023-05-10T01:24:23;11.40;1.00
13673;DHT22;6909;52.202;9.876;2023-05-10T01:27:31;11.30;1.00
13673;DHT22;6909;52.202;9.876;2023-05-10T01:30:29;11.20;1.00
13673;DHT22;6909;52.202;9.876;2023-05-10T01:32:59;11.10;1.00
13673;DHT22;6909;52.202;9.876;2023-05-10T01:35:36;11.10;1.00
13673;DHT22;6909;52.202;9.876;2023-05-10T01:38:07;11.00;1.00
13673;DHT22;6909;52.202;9.876;2023-05-10T01:40:41;11.00;1.00
13673;DHT22;6909;52.202;9.876;2023-05-10T01:43:17;11.00;1.00
13673;DHT22;6909;52.202;9.876;2023-05-10T01:45:53;11.00;1.00
13673;DHT22;6909;52.202;9.876;2023-05-10T01:48:24;11.00;1.00
13673;DHT22;6909;52.202;9.876;2023-05-10T01:50:53;11.00;1.00
13673;DHT22;6909;52.202;9.876;2023-05-10T01:53:22;11.00;1.00
13673;DHT22;6909;52.202;9.876;2023-05-10T01:55:51;11.10;1.00
13673;DHT22;6909;52.202;9.876;2023-05-10T01:58:21;11.10;1.00
13673;DHT22;6909;52.202;9.876;2023-05-10T02:00:50;11.10;1.00
13673;DHT22;6909;52.202;9.876;2023-05-10T02:03:20;11.00;1.00
13673;DHT22;6909;52.202;9.876;2023-05-10T02:05:50;10.90;1.00
13673;DHT22;6909;52.202;9.876;2023-05-10T02:08:19;10.80;1.00
13673;DHT22;6909;52.202;9.876;2023-05-10T02:10:49;10.90;1.00
13673;DHT22;6909;52.202;9.876;2023-05-10T02:13:16;11.10;1.00
13673;DHT22;6909;52.202;9.876;2023-05-10T02:15:47;11.30;1.00
13673;DHT22;6909;52.202;9.876;2023-05-10T02:18:15;11.40;1.00
13673;DHT22;6909;52.202;9.876;2023-05-10T02:20:45;11.70;1.00
13673;DHT22;6909;52.202;9.876;2023-05-10T02:23:14;11.80;1.00
13673;DHT22;6909;52.202;9.876;2023-05-10T02:25:43;11.90;1.00
13673;DHT22;6909;52.202;9.876;2023-05-10T02:28:11;11.90;1.00
13673;DHT22;6909;52.202;9.876;2023-05-10T02:30:39;11.90;1.00
13673;DHT22;6909;52.202;9.876;2023-05-10T02:33:06;12.00;1.00
13673;DHT22;6909;52.202;9.876;2023-05-10T02:35:34;12.10;1.00
13673;DHT22;6909;52.202;9.876;2023-05-10T02:38:01;12.20;1.00
13673;DHT22;6909;52.202;9.876;2023-05-10T02:40:30;12.30;1.00
13673;DHT22;6909;52.202;9.876;2023-05-10T02:42:59;12.40;1.00
13673;DHT22;6909;52.202;9.876;2023-05-10T02:45:30;12.40;1.00
13673;DHT22;6909;52.202;9.876;2023-05-10T02:47:58;12.60;1.00
13673;DHT22;6909;52.202;9.876;2023-05-10T02:50:27;12.70;1.00
13673;DHT22;6909;52.202;9.876;2023-05-10T02:52:59;12.60;1.00
13673;DHT22;6909;52.202;9.876;2023-05-10T02:55:32;12.60;1.00
13673;DHT22;6909;52.202;9.876;2023-05-10T02:58:02;12.50;1.00
13673;DHT22;6909;52.202;9.876;2023-05-10T03:00:29;12.40;1.00
13673;DHT22;6909;52.202;9.876;2023-05-10T03:02:56;12.40;1.00
13673;DHT22;6909;52.202;9.876;2023-05-10T03:05:22;12.30;1.00
13673;DHT22;6909;52.202;9.876;2023-05-10T03:07:50;12.20;1.00
13673;DHT22;6909;52.202;9.876;2023-05-10T03:10:17;12.30;1.00
13673;DHT22;6909;52.202;9.876;2023-05-10T03:12:57;12.40;1.00
13673;DHT22;6909;52.202;9.876;2023-05-10T03:15:37;12.30;1.00
13673;DHT22;6909;52.202;9.876;2023-05-10T03:18:09;12.20;1.00
13673;DHT22;6909;52.202;9.876;2023-05-10T03:20:38;12.00;1.00
13673;DHT22;6909;52.202;9.876;2023-05-10T03:23:12;12.00;1.00
13673;DHT22;6909;52.202;9.876;2023-05-10T03:25:39;12.00;54.10
13673;DHT22;6909;52.202;9.876;2023-05-10T03:28:08;11.90;94.40
13673;DHT22;6909;52.202;9.876;2023-05-10T03:30:35;11.90;99.90
13673;DHT22;6909;52.202;9.876;2023-05-10T03:33:04;11.90;99.90
13673;DHT22;6909;52.202;9.876;2023-05-10T03:35:31;11.90;99.90
13673;DHT22;6909;52.202;9.876;2023-05-10T03:37:58;11.90;99.90
13673;DHT22;6909;52.202;9.876;2023-05-10T03:40:26;11.90;1.00
13673;DHT22;6909;52.202;9.876;2023-05-10T03:42:54;11.80;1.00
13673;DHT22;6909;52.202;9.876;2023-05-10T03:45:22;11.90;1.00
13673;DHT22;6909;52.202;9.876;2023-05-10T03:47:48;11.90;1.00
13673;DHT22;6909;52.202;9.876;2023-05-10T03:50:15;11.80;99.90
13673;DHT22;6909;52.202;9.876;2023-05-10T03:52:42;11.80;50.50
13673;DHT22;6909;52.202;9.876;2023-05-10T03:55:09;11.80;1.00
13673;DHT22;6909;52.202;9.876;2023-05-10T03:57:36;11.80;33.20
13673;DHT22;6909;52.202;9.876;2023-05-10T04:00:04;11.70;99.90
13673;DHT22;6909;52.202;9.876;2023-05-10T04:02:32;11.80;1.00
13673;DHT22;6909;52.202;9.876;2023-05-10T04:04:58;11.80;99.90
13673;DHT22;6909;52.202;9.876;2023-05-10T04:07:25;11.70;99.90
13673;DHT22;6909;52.202;9.876;2023-05-10T04:09:52;11.60;99.90
13673;DHT22;6909;52.202;9.876;2023-05-10T04:12:18;11.60;1.00
13673;DHT22;6909;52.202;9.876;2023-05-10T04:14:45;11.60;1.00
13673;DHT22;6909;52.202;9.876;2023-05-10T04:17:12;11.50;1.00
13673;DHT22;6909;52.202;9.876;2023-05-10T04:19:40;11.50;99.90
13673;DHT22;6909;52.202;9.876;2023-05-10T04:22:06;11.50;1.00
13673;DHT22;6909;52.202;9.876;2023-05-10T04:24:33;11.50;99.90
13673;DHT22;6909;52.202;9.876;2023-05-10T04:27:00;11.60;1.00
13673;DHT22;6909;52.202;9.876;2023-05-10T04:29:27;11.60;99.90
13673;DHT22;6909;52.202;9.876;2023-05-10T04:31:54;11.60;1.00
13673;DHT22;6909;52.202;9.876;2023-05-10T04:34:21;11.60;1.00
13673;DHT22;6909;52.202;9.876;2023-05-10T04:36:49;11.70;99.90
13673;DHT22;6909;52.202;9.876;2023-05-10T04:39:16;11.70;1.00
13673;DHT22;6909;52.202;9.876;2023-05-10T04:41:43;11.70;99.90
13673;DHT22;6909;52.202;9.876;2023-05-10T04:44:10;11.80;1.00
13673;DHT22;6909;52.202;9.876;2023-05-10T04:46:36;11.80;1.00
13673;DHT22;6909;52.202;9.876;2023-05-10T04:49:04;11.90;1.00
13673;DHT22;6909;52.202;9.876;2023-05-10T04:51:34;11.90;99.90
13673;DHT22;6909;52.202;9.876;2023-05-10T04:54:09;11.90;1.00
13673;DHT22;6909;52.202;9.876;2023-05-10T04:56:36;11.80;99.90
13673;DHT22;6909;52.202;9.876;2023-05-10T04:59:02;11.60;1.00
13673;DHT22;6909;52.202;9.876;2023-05-10T05:01:29;11.50;58.40
13673;DHT22;6909;52.202;9.876;2023-05-10T05:03:56;11.50;99.90
13673;DHT22;6909;52.202;9.876;2023-05-10T05:06:23;11.50;99.90
13673;DHT22;6909;52.202;9.876;2023-05-10T05:08:50;11.50;99.90
13673;DHT22;6909;52.202;9.876;2023-05-10T05:11:18;11.50;99.90
13673;DHT22;6909;52.202;9.876;2023-05-10T05:13:45;11.60;99.90
13673;DHT22;6909;52.202;9.876;2023-05-10T05:16:11;11.70;1.00
13673;DHT22;6909;52.202;9.876;2023-05-10T05:18:38;11.80;1.00
13673;DHT22;6909;52.202;9.876;2023-05-10T05:21:13;11.80;1.00
13673;DHT22;6909;52.202;9.876;2023-05-10T05:23:41;11.80;1.00
13673;DHT22;6909;52.202;9.876;2023-05-10T05:26:08;11.70;57.90
13673;DHT22;6909;52.202;9.876;2023-05-10T05:28:36;11.80;77.80
13673;DHT22;6909;52.202;9.876;2023-05-10T05:31:03;11.80;99.90
13673;DHT22;6909;52.202;9.876;2023-05-10T05:33:29;11.90;99.90
13673;DHT22;6909;52.202;9.876;2023-05-10T05:35:56;11.90;99.90
13673;DHT22;6909;52.202;9.876;2023-05-10T05:38:23;11.90;99.90
13673;DHT22;6909;52.202;9.876;2023-05-10T05:40:49;12.00;99.90
13673;DHT22;6909;52.202;9.876;2023-05-10T05:43:16;12.10;99.90
13673;DHT22;6909;52.202;9.876;2023-05-10T05:45:44;12.10;99.90
13673;DHT22;6909;52.202;9.876;2023-05-10T05:48:11;12.10;99.90
13673;DHT22;6909;52.202;9.876;2023-05-10T05:50:37;12.20;99.90
13673;DHT22;6909;52.202;9.876;2023-05-10T05:53:04;12.10;99.90
13673;DHT22;6909;52.202;9.876;2023-05-10T05:55:31;12.20;99.90
13673;DHT22;6909;52.202;9.876;2023-05-10T05:57:57;12.30;99.90
13673;DHT22;6909;52.202;9.876;2023-05-10T06:00:24;12.30;99.90
13673;DHT22;6909;52.202;9.876;2023-05-10T06:02:52;12.20;99.90
13673;DHT22;6909;52.202;9.876;2023-05-10T06:05:19;12.10;99.90
13673;DHT22;6909;52.202;9.876;2023-05-10T06:07:46;12.00;99.90
13673;DHT22;6909;52.202;9.876;2023-05-10T06:10:13;12.00;99.90
13673;DHT22;6909;52.202;9.876;2023-05-10T06:12:39;12.00;99.90
13673;DHT22;6909;52.202;9.876;2023-05-10T06:15:07;11.90;99.90
13673;DHT22;6909;52.202;9.876;2023-05-10T06:17:34;11.90;99.90
13673;DHT22;6909;52.202;9.876;2023-05-10T06:20:02;11.80;99.90
13673;DHT22;6909;52.202;9.876;2023-05-10T06:22:30;11.80;99.90
13673;DHT22;6909;52.202;9.876;2023-05-10T06:24:56;11.90;99.90
13673;DHT22;6909;52.202;9.876;2023-05-10T06:27:23;12.00;99.90
13673;DHT22;6909;52.202;9.876;2023-05-10T06:29:50;12.00;99.90
13673;DHT22;6909;52.202;9.876;2023-05-10T06:32:16;12.10;99.90
13673;DHT22;6909;52.202;9.876;2023-05-10T06:34:43;12.10;99.90
13673;DHT22;6909;52.202;9.876;2023-05-10T06:37:11;12.20;99.90
13673;DHT22;6909;52.202;9.876;2023-05-10T06:39:38;12.20;99.90
13673;DHT22;6909;52.202;9.876;2023-05-10T06:42:04;12.20;99.90
13673;DHT22;6909;52.202;9.876;2023-05-10T06:44:31;12.20;99.90
13673;DHT22;6909;52.202;9.876;2023-05-10T06:46:58;12.20;99.90
13673;DHT22;6909;52.202;9.876;2023-05-10T06:49:24;12.30;99.90
13673;DHT22;6909;52.202;9.876;2023-05-10T06:51:51;12.30;99.90
13673;DHT22;6909;52.202;9.876;2023-05-10T06:54:19;12.30;99.90
13673;DHT22;6909;52.202;9.876;2023-05-10T06:56:45;12.40;99.90
13673;DHT22;6909;52.202;9.876;2023-05-10T06:59:12;12.40;99.90
13673;DHT22;6909;52.202;9.876;2023-05-10T07:01:40;12.50;99.90
13673;DHT22;6909;52.202;9.876;2023-05-10T07:04:07;12.60;99.90
13673;DHT22;6909;52.202;9.876;2023-05-10T07:06:33;12.70;99.90
13673;DHT22;6909;52.202;9.876;2023-05-10T07:09:00;12.80;99.90
13673;DHT22;6909;52.202;9.876;2023-05-10T07:11:28;12.90;99.90
13673;DHT22;6909;52.202;9.876;2023-05-10T07:13:55;13.00;99.90
13673;DHT22;6909;52.202;9.876;2023-05-10T07:16:22;13.10;99.90
13673;DHT22;6909;52.202;9.876;2023-05-10T07:18:48;13.20;99.90
13673;DHT22;6909;52.202;9.876;2023-05-10T07:21:16;13.40;99.90
13673;DHT22;6909;52.202;9.876;2023-05-10T07:23:42;13.50;99.90
13673;DHT22;6909;52.202;9.876;2023-05-10T07:26:09;13.60;99.90
13673;DHT22;6909;52.202;9.876;2023-05-10T07:28:37;13.70;99.90
13673;DHT22;6909;52.202;9.876;2023-05-10T07:31:04;13.80;99.90
13673;DHT22;6909;52.202;9.876;2023-05-10T07:33:31;13.70;99.90
13673;DHT22;6909;52.202;9.876;2023-05-10T07:35:57;13.70;99.90
13673;DHT22;6909;52.202;9.876;2023-05-10T07:38:24;13.50;99.90
13673;DHT22;6909;52.202;9.876;2023-05-10T07:40:51;13.50;99.90
13673;DHT22;6909;52.202;9.876;2023-05-10T07:43:17;13.60;99.90
13673;DHT22;6909;52.202;9.876;2023-05-10T07:45:45;13.60;99.90
13673;DHT22;6909;52.202;9.876;2023-05-10T07:48:12;13.70;99.90
13673;DHT22;6909;52.202;9.876;2023-05-10T07:50:38;13.70;99.90
13673;DHT22;6909;52.202;9.876;2023-05-10T07:53:05;13.80;99.90
13673;DHT22;6909;52.202;9.876;2023-05-10T07:55:33;13.80;99.90
13673;DHT22;6909;52.202;9.876;2023-05-10T07:57:59;13.80;99.90
13673;DHT22;6909;52.202;9.876;2023-05-10T08:00:27;13.90;99.90
13673;DHT22;6909;52.202;9.876;2023-05-10T08:02:55;13.90;99.90
13673;DHT22;6909;52.202;9.876;2023-05-10T08:05:21;14.00;99.90
13673;DHT22;6909;52.202;9.876;2023-05-10T08:07:48;14.00;99.90
13673;DHT22;6909;52.202;9.876;2023-05-10T08:10:15;13.90;99.90
13673;DHT22;6909;52.202;9.876;2023-05-10T08:12:42;14.00;99.90
13673;DHT22;6909;52.202;9.876;2023-05-10T08:15:09;14.10;99.90
13673;DHT22;6909;52.202;9.876;2023-05-10T08:17:36;13.90;99.90
13673;DHT22;6909;52.202;9.876;2023-05-10T08:20:05;14.10;99.90
13673;DHT22;6909;52.202;9.876;2023-05-10T08:22:33;14.00;99.90
13673;DHT22;6909;52.202;9.876;2023-05-10T08:24:59;14.00;99.90
13673;DHT22;6909;52.202;9.876;2023-05-10T08:27:26;13.90;99.90
13673;DHT22;6909;52.202;9.876;2023-05-10T08:29:53;13.80;99.90
13673;DHT22;6909;52.202;9.876;2023-05-10T08:32:19;13.90;99.90
13673;DHT22;6909;52.202;9.876;2023-05-10T08:34:46;13.80;99.90
13673;DHT22;6909;52.202;9.876;2023-05-10T08:37:14;13.70;99.90
13673;DHT22;6909;52.202;9.876;2023-05-10T08:39:41;13.70;99.90
13673;DHT22;6909;52.202;9.876;2023-05-10T08:42:09;13.80;99.90
13673;DHT22;6909;52.202;9.876;2023-05-10T08:44:36;14.00;99.90
13673;DHT22;6909;52.202;9.876;2023-05-10T08:47:05;14.00;99.90
13673;DHT22;6909;52.202;9.876;2023-05-10T08:49:32;14.00;99.90
13673;DHT22;6909;52.202;9.876;2023-05-10T08:52:03;14.00;99.90
13673;DHT22;6909;52.202;9.876;2023-05-10T08:54:32;14.10;99.90
13673;DHT22;6909;52.202;9.876;2023-05-10T08:56:59;14.10;99.90
13673;DHT22;6909;52.202;9.876;2023-05-10T08:59:27;14.10;99.90
13673;DHT22;6909;52.202;9.876;2023-05-10T09:01:55;14.20;99.90
13673;DHT22;6909;52.202;9.876;2023-05-10T09:04:24;14.40;99.90
13673;DHT22;6909;52.202;9.876;2023-05-10T09:06:50;14.50;99.90
13673;DHT22;6909;52.202;9.876;2023-05-10T09:09:18;14.40;99.90
13673;DHT22;6909;52.202;9.876;2023-05-10T09:11:47;14.60;99.90
13673;DHT22;6909;52.202;9.876;2023-05-10T09:14:15;14.60;99.90
13673;DHT22;6909;52.202;9.876;2023-05-10T09:16:42;14.40;99.90
13673;DHT22;6909;52.202;9.876;2023-05-10T09:19:09;14.20;99.90
13673;DHT22;6909;52.202;9.876;2023-05-10T09:21:36;14.20;99.90
13673;DHT22;6909;52.202;9.876;2023-05-10T09:24:04;14.30;99.90
13673;DHT22;6909;52.202;9.876;2023-05-10T09:26:31;14.40;99.90
13673;DHT22;6909;52.202;9.876;2023-05-10T09:29:00;14.40;99.90
13673;DHT22;6909;52.202;9.876;2023-05-10T09:31:43;14.30;99.90
13673;DHT22;6909;52.202;9.876;2023-05-10T09:34:11;14.30;99.90
13673;DHT22;6909;52.202;9.876;2023-05-10T09:36:54;14.20;99.90
13673;DHT22;6909;52.202;9.876;2023-05-10T09:39:30;14.30;99.90
13673;DHT22;6909;52.202;9.876;2023-05-10T09:41:58;14.40;99.90
13673;DHT22;6909;52.202;9.876;2023-05-10T09:44:27;14.50;99.90
13673;DHT22;6909;52.202;9.876;2023-05-10T09:46:53;14.50;99.90
13673;DHT22;6909;52.202;9.876;2023-05-10T09:49:21;14.60;99.90
13673;DHT22;6909;52.202;9.876;2023-05-10T09:52:00;14.90;99.90
13673;DHT22;6909;52.202;9.876;2023-05-10T09:54:27;15.00;99.90
13673;DHT22;6909;52.202;9.876;2023-05-10T09:56:53;15.10;99.90
13673;DHT22;6909;52.202;9.876;2023-05-10T09:59:20;15.20;99.90
13673;DHT22;6909;52.202;9.876;2023-05-10T10:01:50;15.20;99.90
13673;DHT22;6909;52.202;9.876;2023-05-10T10:04:17;15.40;99.90
13673;DHT22;6909;52.202;9.876;2023-05-10T10:06:46;15.50;99.90
13673;DHT22;6909;52.202;9.876;2023-05-10T10:09:13;15.50;99.90
13673;DHT22;6909;52.202;9.876;2023-05-10T10:11:40;15.70;99.90
13673;DHT22;6909;52.202;9.876;2023-05-10T10:14:07;15.80;99.90
13673;DHT22;6909;52.202;9.876;2023-05-10T10:16:34;15.80;99.90
13673;DHT22;6909;52.202;9.876;2023-05-10T10:19:02;15.80;99.90
13673;DHT22;6909;52.202;9.876;2023-05-10T10:21:29;16.20;99.90
13673;DHT22;6909;52.202;9.876;2023-05-10T10:23:56;16.10;99.90
13673;DHT22;6909;52.202;9.876;2023-05-10T10:26:23;16.20;99.90
13673;DHT22;6909;52.202;9.876;2023-05-10T10:28:56;16.30;99.90
13673;DHT22;6909;52.202;9.876;2023-05-10T10:31:32;16.30;99.90
13673;DHT22;6909;52.202;9.876;2023-05-10T10:34:05;16.20;99.90
13673;DHT22;6909;52.202;9.876;2023-05-10T10:36:33;16.40;99.90
13673;DHT22;6909;52.202;9.876;2023-05-10T10:39:09;16.70;99.90
13673;DHT22;6909;52.202;9.876;2023-05-10T10:41:37;16.90;99.90
13673;DHT22;6909;52.202;9.876;2023-05-10T10:44:28;16.90;99.90
13673;DHT22;6909;52.202;9.876;2023-05-10T10:47:00;16.90;99.90
13673;DHT22;6909;52.202;9.876;2023-05-10T10:49:30;16.70;99.90
13673;DHT22;6909;52.202;9.876;2023-05-10T10:52:14;16.70;99.90
13673;DHT22;6909;52.202;9.876;2023-05-10T10:54:41;16.90;99.90
13673;DHT22;6909;52.202;9.876;2023-05-10T10:57:11;17.00;99.90
13673;DHT22;6909;52.202;9.876;2023-05-10T10:59:41;16.90;99.90
13673;DHT22;6909;52.202;9.876;2023-05-10T11:02:09;16.90;99.90
13673;DHT22;6909;52.202;9.876;2023-05-10T11:04:43;16.90;99.90
13673;DHT22;6909;52.202;9.876;2023-05-10T11:07:19;16.80;99.90
13673;DHT22;6909;52.202;9.876;2023-05-10T11:09:46;16.80;99.90
13673;DHT22;6909;52.202;9.876;2023-05-10T11:12:13;16.90;99.90
13673;DHT22;6909;52.202;9.876;2023-05-10T11:14:40;17.20;99.90
13673;DHT22;6909;52.202;9.876;2023-05-10T11:17:22;17.10;99.90
13673;DHT22;6909;52.202;9.876;2023-05-10T11:20:06;17.40;99.90
13673;DHT22;6909;52.202;9.876;2023-05-10T11:22:49;17.50;99.90
13673;DHT22;6909;52.202;9.876;2023-05-10T11:25:16;18.00;99.90
13673;DHT22;6909;52.202;9.876;2023-05-10T11:27:42;18.10;99.90
13673;DHT22;6909;52.202;9.876;2023-05-10T11:30:10;18.30;99.90
13673;DHT22;6909;52.202;9.876;2023-05-10T11:32:38;18.50;99.90
13673;DHT22;6909;52.202;9.876;2023-05-10T11:35:09;18.90;99.90
13673;DHT22;6909;52.202;9.876;2023-05-10T11:37:36;19.10;99.90
13673;DHT22;6909;52.202;9.876;2023-05-10T11:40:05;19.20;99.90
13673;DHT22;6909;52.202;9.876;2023-05-10T11:42:32;19.40;99.90
13673;DHT22;6909;52.202;9.876;2023-05-10T11:45:00;19.40;99.90
13673;DHT22;6909;52.202;9.876;2023-05-10T11:47:27;19.60;99.90
13673;DHT22;6909;52.202;9.876;2023-05-10T11:49:54;20.10;99.90
13673;DHT22;6909;52.202;9.876;2023-05-10T11:52:22;20.10;99.90
13673;DHT22;6909;52.202;9.876;2023-05-10T11:54:51;20.20;99.90
13673;DHT22;6909;52.202;9.876;2023-05-10T11:57:18;20.40;99.90
13673;DHT22;6909;52.202;9.876;2023-05-10T11:59:45;20.50;99.90
13673;DHT22;6909;52.202;9.876;2023-05-10T12:02:12;20.30;99.90
13673;DHT22;6909;52.202;9.876;2023-05-10T12:04:39;19.80;93.20
13673;DHT22;6909;52.202;9.876;2023-05-10T12:07:06;19.90;1.00
13673;DHT22;6909;52.202;9.876;2023-05-10T12:09:34;19.50;1.00
13673;DHT22;6909;52.202;9.876;2023-05-10T12:12:02;19.30;99.90
13673;DHT22;6909;52.202;9.876;2023-05-10T12:14:29;19.50;1.00
13673;DHT22;6909;52.202;9.876;2023-05-10T12:16:58;19.40;99.90
13673;DHT22;6909;52.202;9.876;2023-05-10T12:19:25;19.30;99.90
13673;DHT22;6909;52.202;9.876;2023-05-10T12:21:52;18.90;99.90
13673;DHT22;6909;52.202;9.876;2023-05-10T12:24:18;18.60;1.00
13673;DHT22;6909;52.202;9.876;2023-05-10T12:26:48;18.30;99.90
13673;DHT22;6909;52.202;9.876;2023-05-10T12:29:16;18.20;99.90
13673;DHT22;6909;52.202;9.876;2023-05-10T12:31:53;17.90;1.00
13673;DHT22;6909;52.202;9.876;2023-05-10T12:34:26;17.30;1.00
13673;DHT22;6909;52.202;9.876;2023-05-10T12:36:54;16.50;1.00
13673;DHT22;6909;52.202;9.876;2023-05-10T12:39:20;16.00;99.90
13673;DHT22;6909;52.202;9.876;2023-05-10T12:41:48;15.60;99.90
13673;DHT22;6909;52.202;9.876;2023-05-10T12:44:15;15.60;99.90
13673;DHT22;6909;52.202;9.876;2023-05-10T12:46:42;15.60;99.90
13673;DHT22;6909;52.202;9.876;2023-05-10T12:49:09;15.60;99.90
13673;DHT22;6909;52.202;9.876;2023-05-10T12:51:35;15.60;99.90
13673;DHT22;6909;52.202;9.876;2023-05-10T12:54:02;15.50;99.90
13673;DHT22;6909;52.202;9.876;2023-05-10T12:56:29;15.60;99.90
13673;DHT22;6909;52.202;9.876;2023-05-10T12:58:57;15.90;99.90
13673;DHT22;6909;52.202;9.876;2023-05-10T13:01:23;16.10;99.90
13673;DHT22;6909;52.202;9.876;2023-05-10T13:03:50;16.30;99.90
13673;DHT22;6909;52.202;9.876;2023-05-10T13:06:17;16.40;99.90
13673;DHT22;6909;52.202;9.876;2023-05-10T13:08:43;16.70;99.90
13673;DHT22;6909;52.202;9.876;2023-05-10T13:11:10;16.90;99.90
13673;DHT22;6909;52.202;9.876;2023-05-10T13:13:37;17.20;99.90
13673;DHT22;6909;52.202;9.876;2023-05-10T13:16:05;17.00;99.90
13673;DHT22;6909;52.202;9.876;2023-05-10T13:18:32;17.00;99.90
13673;DHT22;6909;52.202;9.876;2023-05-10T13:20:59;17.10;99.90
13673;DHT22;6909;52.202;9.876;2023-05-10T13:23:25;17.40;99.90
13673;DHT22;6909;52.202;9.876;2023-05-10T13:25:52;17.60;99.90
13673;DHT22;6909;52.202;9.876;2023-05-10T13:28:19;17.70;99.90
13673;DHT22;6909;52.202;9.876;2023-05-10T13:30:45;17.60;99.90
13673;DHT22;6909;52.202;9.876;2023-05-10T13:33:14;17.60;99.90
13673;DHT22;6909;52.202;9.876;2023-05-10T13:35:40;17.90;99.90
13673;DHT22;6909;52.202;9.876;2023-05-10T13:38:07;17.80;1.00
13673;DHT22;6909;52.202;9.876;2023-05-10T13:40:34;17.60;99.90
13673;DHT22;6909;52.202;9.876;2023-05-10T13:43:01;17.60;1.00
13673;DHT22;6909;52.202;9.876;2023-05-10T13:45:27;17.50;1.00
13673;DHT22;6909;52.202;9.876;2023-05-10T13:47:54;17.50;99.90
13673;DHT22;6909;52.202;9.876;2023-05-10T13:50:22;17.70;99.90
13673;DHT22;6909;52.202;9.876;2023-05-10T13:52:49;17.90;1.00
13673;DHT22;6909;52.202;9.876;2023-05-10T13:55:15;17.90;1.00
13673;DHT22;6909;52.202;9.876;2023-05-10T13:57:42;18.10;99.90
13673;DHT22;6909;52.202;9.876;2023-05-10T14:00:09;18.20;99.90
13673;DHT22;6909;52.202;9.876;2023-05-10T14:02:36;18.00;81.30
13673;DHT22;6909;52.202;9.876;2023-05-10T14:05:03;18.10;1.00
13673;DHT22;6909;52.202;9.876;2023-05-10T14:07:32;18.20;99.90
13673;DHT22;6909;52.202;9.876;2023-05-10T14:09:58;18.20;99.90
13673;DHT22;6909;52.202;9.876;2023-05-10T14:12:25;18.20;1.00
13673;DHT22;6909;52.202;9.876;2023-05-10T14:14:52;18.00;1.00
13673;DHT22;6909;52.202;9.876;2023-05-10T14:17:18;17.70;1.00
13673;DHT22;6909;52.202;9.876;2023-05-10T14:19:45;17.70;1.00
13673;DHT22;6909;52.202;9.876;2023-05-10T14:22:12;17.70;1.00
13673;DHT22;6909;52.202;9.876;2023-05-10T14:24:40;17.80;99.90
13673;DHT22;6909;52.202;9.876;2023-05-10T14:27:07;17.70;99.90
13673;DHT22;6909;52.202;9.876;2023-05-10T14:29:34;18.00;1.00
13673;DHT22;6909;52.202;9.876;2023-05-10T14:32:01;17.70;99.90
13673;DHT22;6909;52.202;9.876;2023-05-10T14:34:28;17.80;99.90
13673;DHT22;6909;52.202;9.876;2023-05-10T14:36:54;17.80;1.00
13673;DHT22;6909;52.202;9.876;2023-05-10T14:39:21;17.80;1.00
13673;DHT22;6909;52.202;9.876;2023-05-10T14:41:50;17.70;99.90
13673;DHT22;6909;52.202;9.876;2023-05-10T14:44:17;17.70;1.00
13673;DHT22;6909;52.202;9.876;2023-05-10T14:46:44;17.70;1.00
13673;DHT22;6909;52.202;9.876;2023-05-10T14:49:10;17.80;1.00
13673;DHT22;6909;52.202;9.876;2023-05-10T14:51:37;17.90;1.00
13673;DHT22;6909;52.202;9.876;2023-05-10T14:54:04;17.80;1.00
13673;DHT22;6909;52.202;9.876;2023-05-10T14:56:31;17.80;1.00
13673;DHT22;6909;52.202;9.876;2023-05-10T14:58:59;17.90;99.90
13673;DHT22;6909;52.202;9.876;2023-05-10T15:01:26;17.90;1.00
13673;DHT22;6909;52.202;9.876;2023-05-10T15:03:52;17.80;99.90
13673;DHT22;6909;52.202;9.876;2023-05-10T15:06:23;17.70;99.90
13673;DHT22;6909;52.202;9.876;2023-05-10T15:08:50;17.70;1.00
13673;DHT22;6909;52.202;9.876;2023-05-10T15:11:18;17.70;93.40
13673;DHT22;6909;52.202;9.876;2023-05-10T15:13:45;17.70;1.00
13673;DHT22;6909;52.202;9.876;2023-05-10T15:16:13;17.70;1.00
13673;DHT22;6909;52.202;9.876;2023-05-10T15:18:40;17.70;1.00
13673;DHT22;6909;52.202;9.876;2023-05-10T15:21:07;17.50;99.90
13673;DHT22;6909;52.202;9.876;2023-05-10T15:23:34;17.50;99.90
13673;DHT22;6909;52.202;9.876;2023-05-10T15:26:00;17.50;1.00
13673;DHT22;6909;52.202;9.876;2023-05-10T15:28:28;17.40;1.00
13673;DHT22;6909;52.202;9.876;2023-05-10T15:30:55;17.50;99.90
13673;DHT22;6909;52.202;9.876;2023-05-10T15:33:23;17.50;99.90
13673;DHT22;6909;52.202;9.876;2023-05-10T15:35:49;17.40;1.00
13673;DHT22;6909;52.202;9.876;2023-05-10T15:38:16;17.40;1.00
13673;DHT22;6909;52.202;9.876;2023-05-10T15:40:43;17.40;1.00
13673;DHT22;6909;52.202;9.876;2023-05-10T15:43:10;17.20;99.90
13673;DHT22;6909;52.202;9.876;2023-05-10T15:45:36;17.10;1.00
13673;DHT22;6909;52.202;9.876;2023-05-10T15:48:23;16.90;33.10
13673;DHT22;6909;52.202;9.876;2023-05-10T15:50:52;16.80;1.00
13673;DHT22;6909;52.202;9.876;2023-05-10T15:53:18;16.80;99.90
13673;DHT22;6909;52.202;9.876;2023-05-10T15:55:45;16.70;99.90